Rabb, Texas
Current Conditions -  °F | °C
As of 10:55 AM on Friday 24 Oct 2014 (Local Time) from KRBO Reporting Station
Heavy Rain Heavy Rain  
Wind Chill: 77°   Ceiling: Unl
Heat Index: 79°   Visibility: 7mi
Dew Point: 66°   Wind: 6mph
Humidity: 68%   Direction: 20°NNE
Pressure: 30.17"   Gusts: NA
Location:  27.7757°N, 97.7554°W
Report Text: KRBO 241555Z AUTO 02005KT 7SM +RA CLR 25/19 A3017 RMK AO2 T02500187
Loading
Personal Weather Stations






























Interactive Weather Map New forecast layout! Learn more

10-Day Weather Forecast

Advertisements
Track Severe Weather on mobile